Time;durP1;ratioP1;P1;durP2;ratioP2;P2;SDS_P1;SDS_P2;PMS_P1;PMS_P2;Temp;Humidity;BMP_temperature;BMP_pressure;BME280_temperature;BME280_humidity;BME280_pressure;Samples;Min_cycle;Max_cycle;Signal;HPM_P1;HPM_P2
2021/07/16 00:01:19;;;;;;;12.00;4.90;;;;;;;;;;3591022;40;20032;-68
2021/07/16 00:03:44;;;;;;;8.43;4.40;;;;;;;;;;3589515;40;20035;-68
2021/07/16 00:06:09;;;;;;;6.23;5.07;;;;;;;;;;3589462;40;20050;-68
2021/07/16 00:08:34;;;;;;;9.13;4.53;;;;;;;;;;3591039;40;20021;-68
2021/07/16 00:11:00;;;;;;;10.82;4.78;;;;;;;;;;3591850;39;20031;-68
2021/07/16 00:13:25;;;;;;;7.53;4.97;;;;;;;;;;3591050;40;20009;-68
2021/07/16 00:15:50;;;;;;;7.93;4.67;;;;;;;;;;3590948;40;20072;-68
2021/07/16 00:18:15;;;;;;;13.40;5.53;;;;;;;;;;3590387;40;20451;-69
2021/07/16 00:20:44;;;;;;;15.85;8.18;;;;;;;;;;3580863;40;20025;-70
2021/07/16 00:23:09;;;;;;;10.80;7.78;;;;;;;;;;3588947;39;20043;-69
2021/07/16 00:25:34;;;;;;;7.03;5.50;;;;;;;;;;3588817;40;20028;-69
2021/07/16 00:27:59;;;;;;;8.33;5.30;;;;;;;;;;3590760;40;20028;-69
2021/07/16 00:30:24;;;;;;;6.90;4.47;;;;;;;;;;3589897;40;20036;-69
2021/07/16 00:32:50;;;;;;;10.93;5.13;;;;;;;;;;3592093;40;20797;-68
2021/07/16 00:35:15;;;;;;;7.40;4.57;;;;;;;;;;3590686;40;20055;-68
2021/07/16 00:37:40;;;;;;;6.53;4.47;;;;;;;;;;3589869;40;20119;-68
2021/07/16 00:40:05;;;;;;;6.63;4.90;;;;;;;;;;3590311;40;20708;-68
2021/07/16 00:42:31;;;;;;;8.73;5.20;;;;;;;;;;3591072;40;20254;-68
2021/07/16 00:44:56;;;;;;;6.23;4.70;;;;;;;;;;3590655;40;20638;-68
2021/07/16 00:47:21;;;;;;;6.63;5.00;;;;;;;;;;3589556;40;20052;-68
2021/07/16 00:49:46;;;;;;;8.77;4.83;;;;;;;;;;3590912;40;20028;-68
2021/07/16 00:52:11;;;;;;;7.17;5.20;;;;;;;;;;3590793;40;20034;-69
2021/07/16 00:54:36;;;;;;;5.67;4.60;;;;;;;;;;3590643;40;20032;-68
2021/07/16 00:57:02;;;;;;;7.90;4.97;;;;;;;;;;3591089;40;20254;-67
2021/07/16 00:59:27;;;;;;;9.10;5.10;;;;;;;;;;3591368;39;20064;-68
2021/07/16 01:01:53;;;;;;;8.83;5.03;;;;;;;;;;3590228;40;20036;-68
2021/07/16 01:04:18;;;;;;;9.93;5.03;;;;;;;;;;3592613;39;20258;-68
2021/07/16 01:06:43;;;;;;;8.73;5.03;;;;;;;;;;3593388;40;20031;-68
2021/07/16 01:09:08;;;;;;;6.77;4.83;;;;;;;;;;3593396;40;20040;-69
2021/07/16 01:11:33;;;;;;;7.40;4.60;;;;;;;;;;3593336;40;20035;-61
2021/07/16 01:13:59;;;;;;;9.33;5.07;;;;;;;;;;3593233;40;20035;-61
2021/07/16 01:16:24;;;;;;;8.37;5.97;;;;;;;;;;3592189;40;20118;-61
2021/07/16 01:18:49;;;;;;;9.87;6.40;;;;;;;;;;3593317;40;20142;-61
2021/07/16 01:21:14;;;;;;;10.37;6.23;;;;;;;;;;3593003;40;20073;-61
2021/07/16 01:23:40;;;;;;;8.30;5.38;;;;;;;;;;3592763;39;20024;-61
2021/07/16 01:26:05;;;;;;;13.63;5.60;;;;;;;;;;3592912;40;20501;-61
2021/07/16 01:28:30;;;;;;;10.23;6.70;;;;;;;;;;3592710;40;20043;-61
2021/07/16 01:30:55;;;;;;;8.63;5.87;;;;;;;;;;3591609;40;20028;-61
2021/07/16 01:33:21;;;;;;;10.00;5.90;;;;;;;;;;3592446;40;20144;-61
2021/07/16 01:35:46;;;;;;;10.15;6.22;;;;;;;;;;3592622;39;20042;-61
2021/07/16 01:38:11;;;;;;;8.27;5.87;;;;;;;;;;3592856;40;20036;-61
2021/07/16 01:40:37;;;;;;;9.53;6.13;;;;;;;;;;3591982;40;20504;-61
2021/07/16 01:43:02;;;;;;;7.88;5.78;;;;;;;;;;3592818;39;20254;-61
2021/07/16 01:45:28;;;;;;;5.90;5.30;;;;;;;;;;3592018;40;20068;-61
2021/07/16 01:47:53;;;;;;;8.40;5.37;;;;;;;;;;3592792;40;20082;-61
2021/07/16 01:50:18;;;;;;;8.30;5.83;;;;;;;;;;3583166;40;20039;-61
2021/07/16 01:52:43;;;;;;;14.20;5.93;;;;;;;;;;3592351;40;20125;-61
2021/07/16 01:55:09;;;;;;;8.83;5.77;;;;;;;;;;3592592;40;20029;-61
2021/07/16 01:57:35;;;;;;;10.02;6.32;;;;;;;;;;3592200;39;20267;-61
2021/07/16 02:00:00;;;;;;;7.37;5.67;;;;;;;;;;3592302;40;20039;-61
2021/07/16 02:02:25;;;;;;;13.00;6.53;;;;;;;;;;3592444;40;20428;-61
2021/07/16 02:04:50;;;;;;;9.43;6.43;;;;;;;;;;3590989;40;20705;-62
2021/07/16 02:07:15;;;;;;;12.37;5.80;;;;;;;;;;3589468;40;20056;-61
2021/07/16 02:09:41;;;;;;;8.53;5.83;;;;;;;;;;3592123;40;20400;-61
2021/07/16 02:12:06;;;;;;;10.70;5.53;;;;;;;;;;3592276;40;20696;-61
2021/07/16 02:14:31;;;;;;;7.47;5.93;;;;;;;;;;3592528;39;20624;-61
2021/07/16 02:16:59;;;;;;;8.23;5.83;;;;;;;;;;3593041;40;20480;-61
2021/07/16 02:19:24;;;;;;;6.97;5.60;;;;;;;;;;3592892;39;20258;-61
2021/07/16 02:21:49;;;;;;;9.43;5.50;;;;;;;;;;3592809;40;20032;-61
2021/07/16 02:24:15;;;;;;;12.00;5.60;;;;;;;;;;3592140;40;20064;-61
2021/07/16 02:26:40;;;;;;;8.77;5.40;;;;;;;;;;3592713;40;20021;-61
2021/07/16 02:29:05;;;;;;;8.07;5.20;;;;;;;;;;3592870;40;20024;-61
2021/07/16 02:31:30;;;;;;;7.50;5.90;;;;;;;;;;3592066;40;20040;-61
2021/07/16 02:33:55;;;;;;;11.20;5.87;;;;;;;;;;3592838;40;20905;-61
2021/07/16 02:36:23;;;;;;;7.17;5.97;;;;;;;;;;3592458;40;20347;-61
2021/07/16 02:38:48;;;;;;;7.72;6.40;;;;;;;;;;3591215;40;20035;-61
2021/07/16 02:41:13;;;;;;;7.60;5.80;;;;;;;;;;3592400;40;20032;-61
2021/07/16 02:43:39;;;;;;;7.00;6.10;;;;;;;;;;3592880;40;20105;-61
2021/07/16 02:46:04;;;;;;;7.45;6.15;;;;;;;;;;3592171;40;20824;-61
2021/07/16 02:48:29;;;;;;;12.20;6.33;;;;;;;;;;3592943;40;20038;-61
2021/07/16 02:50:54;;;;;;;6.97;5.73;;;;;;;;;;3592584;40;20470;-61
2021/07/16 02:53:20;;;;;;;8.40;6.03;;;;;;;;;;3592483;39;20030;-62
2021/07/16 02:55:45;;;;;;;8.38;6.18;;;;;;;;;;3592810;40;20019;-61
2021/07/16 02:58:11;;;;;;;9.50;6.10;;;;;;;;;;3592922;40;20036;-61
2021/07/16 03:00:36;;;;;;;12.13;6.50;;;;;;;;;;3582121;40;20274;-61
2021/07/16 03:03:01;;;;;;;11.17;5.93;;;;;;;;;;3592003;40;20247;-61
2021/07/16 03:05:29;;;;;;;7.80;6.20;;;;;;;;;;3592167;40;20034;-61
2021/07/16 03:07:54;;;;;;;11.75;6.13;;;;;;;;;;3591749;39;20021;-62
2021/07/16 03:10:20;;;;;;;7.00;6.10;;;;;;;;;;3592367;40;20064;-61
2021/07/16 03:12:45;;;;;;;6.95;6.25;;;;;;;;;;3592335;40;20032;-61
2021/07/16 03:15:10;;;;;;;9.47;6.70;;;;;;;;;;3591516;40;20036;-61
2021/07/16 03:17:37;;;;;;;10.27;6.13;;;;;;;;;;3592030;40;20097;-61
2021/07/16 03:20:02;;;;;;;12.98;6.93;;;;;;;;;;3590392;40;20154;-61
2021/07/16 03:22:27;;;;;;;8.20;6.47;;;;;;;;;;3591999;40;20053;-61
2021/07/16 03:24:52;;;;;;;10.53;6.07;;;;;;;;;;3590486;40;20036;-61
2021/07/16 03:27:17;;;;;;;7.40;6.60;;;;;;;;;;3591404;39;20254;-61
2021/07/16 03:29:42;;;;;;;11.30;7.47;;;;;;;;;;3590602;40;20375;-61
2021/07/16 03:32:08;;;;;;;7.83;6.67;;;;;;;;;;3591652;40;20024;-61
2021/07/16 03:34:33;;;;;;;10.33;6.83;;;;;;;;;;3591542;40;20588;-61
2021/07/16 03:36:58;;;;;;;8.30;6.77;;;;;;;;;;3591480;40;20535;-61
2021/07/16 03:39:23;;;;;;;10.13;6.80;;;;;;;;;;3591804;40;20032;-61
2021/07/16 03:41:48;;;;;;;8.97;6.20;;;;;;;;;;3590787;40;20043;-61
2021/07/16 03:44:14;;;;;;;10.67;6.50;;;;;;;;;;3591658;40;20876;-61
2021/07/16 03:46:39;;;;;;;8.83;6.40;;;;;;;;;;3591735;40;20570;-61
2021/07/16 03:49:04;;;;;;;9.50;6.67;;;;;;;;;;3591623;40;20111;-61
2021/07/16 03:51:29;;;;;;;7.73;6.53;;;;;;;;;;3591323;40;20301;-61
2021/07/16 03:53:54;;;;;;;7.83;5.87;;;;;;;;;;3591926;40;20274;-61
2021/07/16 03:56:20;;;;;;;8.97;6.43;;;;;;;;;;3591072;40;20128;-61
2021/07/16 03:58:46;;;;;;;9.30;6.50;;;;;;;;;;3591311;40;20040;-61
2021/07/16 04:01:11;;;;;;;7.10;5.88;;;;;;;;;;3590959;39;20074;-61
2021/07/16 04:03:36;;;;;;;9.03;6.57;;;;;;;;;;3591380;40;20389;-61
2021/07/16 04:06:01;;;;;;;11.53;6.47;;;;;;;;;;3590521;40;20024;-61
2021/07/16 04:08:26;;;;;;;6.93;6.07;;;;;;;;;;3590865;40;20016;-61
2021/07/16 04:10:52;;;;;;;6.90;6.10;;;;;;;;;;3591128;40;20028;-61
2021/07/16 04:13:17;;;;;;;9.03;6.47;;;;;;;;;;3591289;40;20025;-61
2021/07/16 04:15:42;;;;;;;8.47;6.07;;;;;;;;;;3590824;40;20040;-61
2021/07/16 04:18:07;;;;;;;7.27;5.87;;;;;;;;;;3591006;40;20037;-61
2021/07/16 04:20:33;;;;;;;10.40;5.87;;;;;;;;;;3590302;40;20398;-61
2021/07/16 04:22:58;;;;;;;7.60;6.03;;;;;;;;;;3590348;39;20036;-61
2021/07/16 04:25:23;;;;;;;8.20;6.23;;;;;;;;;;3590560;40;20369;-61
2021/07/16 04:27:49;;;;;;;7.57;5.90;;;;;;;;;;3590578;40;20493;-61
2021/07/16 04:30:14;;;;;;;9.30;6.33;;;;;;;;;;3589680;40;20028;-61
2021/07/16 04:32:39;;;;;;;10.73;6.93;;;;;;;;;;3590912;40;20274;-62
2021/07/16 04:35:04;;;;;;;7.57;6.10;;;;;;;;;;3589613;40;20048;-61
2021/07/16 04:37:29;;;;;;;8.60;6.70;;;;;;;;;;3590710;40;20035;-61
2021/07/16 04:39:56;;;;;;;8.07;6.33;;;;;;;;;;3590981;40;20345;-61
2021/07/16 04:42:21;;;;;;;10.32;6.50;;;;;;;;;;3590450;39;20303;-61
2021/07/16 04:44:47;;;;;;;9.07;6.57;;;;;;;;;;3591048;39;20024;-61
2021/07/16 04:47:12;;;;;;;8.13;6.50;;;;;;;;;;3590830;40;20040;-61
2021/07/16 04:49:37;;;;;;;8.50;7.32;;;;;;;;;;3589979;40;20035;-61
2021/07/16 04:52:02;;;;;;;20.00;6.87;;;;;;;;;;3589398;40;20033;-61
2021/07/16 04:54:27;;;;;;;10.57;7.20;;;;;;;;;;3591448;40;20394;-61
2021/07/16 04:56:53;;;;;;;8.02;6.72;;;;;;;;;;3591752;40;20024;-62
2021/07/16 04:59:18;;;;;;;9.43;6.30;;;;;;;;;;3591697;40;20718;-62
2021/07/16 05:01:43;;;;;;;8.23;7.17;;;;;;;;;;3591240;40;20024;-61
2021/07/16 05:04:09;;;;;;;8.93;7.33;;;;;;;;;;3591348;40;20036;-61
2021/07/16 05:06:34;;;;;;;9.88;6.75;;;;;;;;;;3591567;40;20044;-61
2021/07/16 05:08:59;;;;;;;9.40;7.03;;;;;;;;;;3588624;40;20024;-61
2021/07/16 05:11:24;;;;;;;12.68;7.63;;;;;;;;;;3591288;40;20032;-61
2021/07/16 05:13:49;;;;;;;13.53;7.60;;;;;;;;;;3589949;40;20035;-61
2021/07/16 05:16:15;;;;;;;7.97;6.57;;;;;;;;;;3591917;40;20020;-61
2021/07/16 05:18:40;;;;;;;7.85;6.90;;;;;;;;;;3591706;40;20024;-61
2021/07/16 05:21:05;;;;;;;8.63;7.00;;;;;;;;;;3591180;40;20048;-61
2021/07/16 05:23:30;;;;;;;9.80;7.77;;;;;;;;;;3591310;40;20024;-61
2021/07/16 05:25:56;;;;;;;9.40;7.67;;;;;;;;;;3591586;40;20044;-61
2021/07/16 05:28:21;;;;;;;10.43;7.97;;;;;;;;;;3589370;40;20033;-61
2021/07/16 05:30:46;;;;;;;9.67;7.73;;;;;;;;;;3591628;40;20032;-61
2021/07/16 05:33:11;;;;;;;12.50;7.60;;;;;;;;;;3590522;40;20040;-61
2021/07/16 05:35:36;;;;;;;8.53;7.03;;;;;;;;;;3591133;40;20899;-61
2021/07/16 05:38:01;;;;;;;10.23;7.97;;;;;;;;;;3591475;40;20024;-61
2021/07/16 05:40:27;;;;;;;12.20;8.03;;;;;;;;;;3591339;40;20125;-61
2021/07/16 05:42:52;;;;;;;10.80;6.82;;;;;;;;;;3591370;39;20020;-61
2021/07/16 05:45:17;;;;;;;14.00;8.07;;;;;;;;;;3591277;40;20036;-61
2021/07/16 05:47:43;;;;;;;8.70;7.50;;;;;;;;;;3591855;40;20028;-62
2021/07/16 05:50:08;;;;;;;9.30;7.57;;;;;;;;;;3592212;39;20046;-62
2021/07/16 05:52:33;;;;;;;12.90;8.20;;;;;;;;;;3592802;40;20032;-61
2021/07/16 05:54:58;;;;;;;13.40;8.33;;;;;;;;;;3592873;40;20117;-67
2021/07/16 05:57:23;;;;;;;9.77;8.23;;;;;;;;;;3592634;40;20024;-68
2021/07/16 05:59:49;;;;;;;14.43;7.67;;;;;;;;;;3590741;40;20027;-69
2021/07/16 06:02:14;;;;;;;10.07;8.00;;;;;;;;;;3592844;40;20140;-69
2021/07/16 06:04:39;;;;;;;16.53;8.67;;;;;;;;;;3591811;40;20032;-69
2021/07/16 06:07:04;;;;;;;15.00;8.30;;;;;;;;;;3592967;40;20246;-69
2021/07/16 06:09:29;;;;;;;13.07;8.60;;;;;;;;;;3592372;40;20027;-69
2021/07/16 06:11:55;;;;;;;11.47;8.73;;;;;;;;;;3592690;40;20307;-68
2021/07/16 06:14:21;;;;;;;12.70;7.80;;;;;;;;;;3592544;40;20046;-66
2021/07/16 06:16:49;;;;;;;9.98;8.63;;;;;;;;;;3591295;40;20038;-67
2021/07/16 06:19:14;;;;;;;13.32;7.50;;;;;;;;;;3593208;40;20028;-68
2021/07/16 06:21:39;;;;;;;14.83;8.83;;;;;;;;;;3591340;40;20574;-67
2021/07/16 06:24:05;;;;;;;12.80;8.53;;;;;;;;;;3592214;40;20036;-68
2021/07/16 06:26:31;;;;;;;14.10;8.90;;;;;;;;;;3593240;40;20032;-68
2021/07/16 06:28:56;;;;;;;15.02;10.07;;;;;;;;;;3589537;40;20311;-68
2021/07/16 06:31:21;;;;;;;16.40;9.70;;;;;;;;;;3591375;40;20399;-67
2021/07/16 06:33:47;;;;;;;12.50;8.80;;;;;;;;;;3592794;40;20024;-68
2021/07/16 06:36:12;;;;;;;13.43;7.60;;;;;;;;;;3588551;40;20285;-68
2021/07/16 06:38:37;;;;;;;10.50;7.70;;;;;;;;;;3592699;40;20089;-68
2021/07/16 06:41:02;;;;;;;8.47;7.53;;;;;;;;;;3591927;40;20109;-68
2021/07/16 06:43:28;;;;;;;11.10;7.50;;;;;;;;;;3591362;40;20060;-68
2021/07/16 06:45:53;;;;;;;16.83;7.80;;;;;;;;;;3590839;40;20262;-68
2021/07/16 06:48:18;;;;;;;10.65;8.18;;;;;;;;;;3592687;39;20269;-69
2021/07/16 06:50:43;;;;;;;10.13;7.63;;;;;;;;;;3592910;40;20024;-67
2021/07/16 06:53:09;;;;;;;10.03;7.70;;;;;;;;;;3589931;40;20027;-66
2021/07/16 06:55:35;;;;;;;10.43;7.35;;;;;;;;;;3592482;39;20050;-68
2021/07/16 06:58:00;;;;;;;10.93;7.33;;;;;;;;;;3592874;40;20770;-66
2021/07/16 07:00:25;;;;;;;11.10;7.57;;;;;;;;;;3590985;39;20024;-66
2021/07/16 07:02:50;;;;;;;14.70;8.03;;;;;;;;;;3593242;40;20075;-66
2021/07/16 07:05:16;;;;;;;11.10;7.73;;;;;;;;;;3592706;40;20148;-67
2021/07/16 07:07:41;;;;;;;9.70;7.35;;;;;;;;;;3590562;40;20314;-67
2021/07/16 07:10:06;;;;;;;13.23;8.18;;;;;;;;;;3591485;40;20032;-67
2021/07/16 07:12:39;;;;;;;9.90;7.43;;;;;;;;;;3592281;40;20031;-66
2021/07/16 07:15:06;;;;;;;15.00;8.05;;;;;;;;;;3591475;40;20298;-66
2021/07/16 07:17:32;;;;;;;10.95;8.32;;;;;;;;;;3592811;40;20032;-67
2021/07/16 07:19:57;;;;;;;10.00;8.00;;;;;;;;;;3592186;40;20787;-66
2021/07/16 07:22:22;;;;;;;13.38;7.95;;;;;;;;;;3593783;39;20039;-66
2021/07/16 07:24:47;;;;;;;14.83;8.00;;;;;;;;;;3592106;40;20035;-67
2021/07/16 07:27:13;;;;;;;13.77;7.43;;;;;;;;;;3592706;40;20076;-68
2021/07/16 07:29:39;;;;;;;11.18;7.45;;;;;;;;;;3591448;40;20052;-66
2021/07/16 07:32:05;;;;;;;15.30;8.73;;;;;;;;;;3591736;39;20658;-66
2021/07/16 07:34:30;;;;;;;11.37;8.43;;;;;;;;;;3590899;40;20036;-66
2021/07/16 07:36:55;;;;;;;11.07;8.40;;;;;;;;;;3590389;40;20531;-67
2021/07/16 07:39:20;;;;;;;12.27;8.47;;;;;;;;;;3591624;40;20648;-66
2021/07/16 07:41:46;;;;;;;16.93;9.30;;;;;;;;;;3591348;40;20074;-67
2021/07/16 07:44:11;;;;;;;9.93;7.33;;;;;;;;;;3591985;39;20024;-66
2021/07/16 07:46:36;;;;;;;10.17;7.20;;;;;;;;;;3591925;40;20282;-66
2021/07/16 07:49:02;;;;;;;13.83;6.90;;;;;;;;;;3591396;40;20032;-67
2021/07/16 07:51:27;;;;;;;7.63;6.63;;;;;;;;;;3591243;40;20117;-68
2021/07/16 07:53:53;;;;;;;9.70;6.40;;;;;;;;;;3591401;40;20044;-68
2021/07/16 07:56:18;;;;;;;9.75;7.47;;;;;;;;;;3591487;39;20028;-68
2021/07/16 07:58:44;;;;;;;9.13;6.97;;;;;;;;;;3589820;40;20778;-68
2021/07/16 08:01:09;;;;;;;9.17;7.13;;;;;;;;;;3590886;40;20036;-68
2021/07/16 08:03:34;;;;;;;13.13;7.07;;;;;;;;;;3590889;40;20396;-68
2021/07/16 08:06:00;;;;;;;14.05;7.00;;;;;;;;;;3589266;40;20040;-67
2021/07/16 08:08:25;;;;;;;9.98;7.03;;;;;;;;;;3588202;40;20035;-68
2021/07/16 08:10:50;;;;;;;9.27;6.90;;;;;;;;;;3590659;40;20024;-68
2021/07/16 08:13:16;;;;;;;8.93;7.10;;;;;;;;;;3590742;39;20051;-68
2021/07/16 08:15:41;;;;;;;8.43;6.43;;;;;;;;;;3589961;40;20030;-68
2021/07/16 08:18:06;;;;;;;8.67;5.93;;;;;;;;;;3590285;40;20129;-62
2021/07/16 08:20:31;;;;;;;11.33;7.37;;;;;;;;;;3591464;40;20024;-62
2021/07/16 08:22:56;;;;;;;14.30;7.37;;;;;;;;;;3591703;40;20031;-62
2021/07/16 08:25:22;;;;;;;12.77;6.43;;;;;;;;;;3591114;40;20028;-62
2021/07/16 08:27:47;;;;;;;10.88;6.18;;;;;;;;;;3591341;40;20028;-62
2021/07/16 08:30:12;;;;;;;8.57;6.90;;;;;;;;;;3591104;40;20032;-62
2021/07/16 08:32:37;;;;;;;9.67;6.83;;;;;;;;;;3591540;40;20029;-62
2021/07/16 08:35:03;;;;;;;9.87;6.37;;;;;;;;;;3590343;40;20040;-66
2021/07/16 08:37:28;;;;;;;11.50;6.30;;;;;;;;;;3589619;40;20028;-67
2021/07/16 08:39:55;;;;;;;9.13;5.47;;;;;;;;;;3589125;40;20040;-66
2021/07/16 08:42:21;;;;;;;10.63;6.93;;;;;;;;;;3589960;39;20040;-68
2021/07/16 08:44:46;;;;;;;7.63;6.07;;;;;;;;;;3590447;40;20466;-67
2021/07/16 08:47:11;;;;;;;6.13;5.17;;;;;;;;;;3590394;40;20342;-67
2021/07/16 08:49:36;;;;;;;14.27;5.63;;;;;;;;;;3589748;40;20340;-67
2021/07/16 08:52:01;;;;;;;10.23;5.40;;;;;;;;;;3590523;40;20024;-67
2021/07/16 08:54:27;;;;;;;9.07;4.97;;;;;;;;;;3589876;40;20047;-67
2021/07/16 08:56:52;;;;;;;10.13;5.25;;;;;;;;;;3589944;39;20024;-67
2021/07/16 08:59:17;;;;;;;9.27;4.90;;;;;;;;;;3590212;40;20024;-67
2021/07/16 09:01:45;;;;;;;6.80;5.07;;;;;;;;;;3590374;40;20032;-67
2021/07/16 09:04:11;;;;;;;11.10;4.75;;;;;;;;;;3589830;40;20028;-67
2021/07/16 09:06:36;;;;;;;5.47;4.13;;;;;;;;;;3590968;40;20030;-67
2021/07/16 09:09:01;;;;;;;5.80;4.27;;;;;;;;;;3591432;40;20031;-67
2021/07/16 09:11:26;;;;;;;11.27;4.43;;;;;;;;;;3590480;40;20036;-67
2021/07/16 09:13:51;;;;;;;7.03;4.07;;;;;;;;;;3589529;40;20877;-67
2021/07/16 09:16:16;;;;;;;10.83;3.90;;;;;;;;;;3591048;40;20059;-67
2021/07/16 09:18:42;;;;;;;11.93;4.30;;;;;;;;;;3590352;40;20024;-67
2021/07/16 09:21:07;;;;;;;6.90;4.00;;;;;;;;;;3590649;40;20542;-67
2021/07/16 09:23:32;;;;;;;6.05;4.82;;;;;;;;;;3589090;39;20072;-67
2021/07/16 09:25:58;;;;;;;12.37;4.10;;;;;;;;;;3589881;40;21010;-68
2021/07/16 09:28:23;;;;;;;7.17;4.27;;;;;;;;;;3590936;40;20083;-67
2021/07/16 09:30:48;;;;;;;12.38;4.55;;;;;;;;;;3588286;40;20035;-67
2021/07/16 09:33:13;;;;;;;6.87;4.73;;;;;;;;;;3590721;40;20040;-66
2021/07/16 09:35:39;;;;;;;11.63;4.60;;;;;;;;;;3590656;40;20103;-61
2021/07/16 09:38:05;;;;;;;10.00;4.20;;;;;;;;;;3590657;39;20129;-61
2021/07/16 09:40:32;;;;;;;6.20;3.97;;;;;;;;;;3590152;39;20726;-61
2021/07/16 09:42:57;;;;;;;9.60;4.22;;;;;;;;;;3590312;39;20406;-62
2021/07/16 09:45:22;;;;;;;9.02;4.75;;;;;;;;;;3590513;39;20040;-62
2021/07/16 09:47:48;;;;;;;7.70;4.40;;;;;;;;;;3589884;40;20043;-62
2021/07/16 09:50:13;;;;;;;9.83;4.47;;;;;;;;;;3589246;40;20028;-62
2021/07/16 09:52:38;;;;;;;12.52;4.35;;;;;;;;;;3590693;39;20472;-62
2021/07/16 09:55:04;;;;;;;10.90;4.03;;;;;;;;;;3589999;40;20035;-62
2021/07/16 09:57:29;;;;;;;9.67;4.10;;;;;;;;;;3591379;40;20024;-59
2021/07/16 09:59:54;;;;;;;8.77;4.40;;;;;;;;;;3591083;40;20044;-60
2021/07/16 10:02:19;;;;;;;12.37;4.60;;;;;;;;;;3590604;40;20031;-60
2021/07/16 10:04:45;;;;;;;14.67;4.40;;;;;;;;;;3592002;40;20039;-60
2021/07/16 10:07:10;;;;;;;10.80;4.33;;;;;;;;;;3591906;40;20431;-60
2021/07/16 10:09:35;;;;;;;7.85;4.60;;;;;;;;;;3587521;40;20035;-60
2021/07/16 10:12:01;;;;;;;7.90;4.37;;;;;;;;;;3590095;40;20024;-60
2021/07/16 10:14:26;;;;;;;9.33;4.90;;;;;;;;;;3592019;40;20035;-61
2021/07/16 10:16:52;;;;;;;14.10;4.60;;;;;;;;;;3591865;40;20493;-61
2021/07/16 10:19:17;;;;;;;7.97;4.53;;;;;;;;;;3591814;40;20032;-61
2021/07/16 10:21:42;;;;;;;13.73;5.57;;;;;;;;;;3591694;40;20035;-60
2021/07/16 10:24:07;;;;;;;12.87;7.83;;;;;;;;;;3590607;40;20024;-61
2021/07/16 10:26:33;;;;;;;11.23;5.10;;;;;;;;;;3591497;40;20025;-60
2021/07/16 10:28:58;;;;;;;16.37;7.83;;;;;;;;;;3591468;40;20401;-60
2021/07/16 10:31:23;;;;;;;9.97;5.23;;;;;;;;;;3589328;40;20377;-60
2021/07/16 10:33:48;;;;;;;10.90;5.37;;;;;;;;;;3591624;40;20696;-60
2021/07/16 10:36:13;;;;;;;11.67;4.83;;;;;;;;;;3590898;39;20375;-60
2021/07/16 10:38:39;;;;;;;9.10;4.97;;;;;;;;;;3591707;40;20024;-61
2021/07/16 10:41:04;;;;;;;9.47;4.93;;;;;;;;;;3591223;40;20038;-60
2021/07/16 10:43:29;;;;;;;7.50;5.20;;;;;;;;;;3591109;40;20044;-61
2021/07/16 10:45:56;;;;;;;11.47;5.37;;;;;;;;;;3591347;40;20036;-61
2021/07/16 10:48:21;;;;;;;11.85;5.75;;;;;;;;;;3591039;40;20267;-60
2021/07/16 10:50:47;;;;;;;13.93;5.10;;;;;;;;;;3591204;39;20760;-60
2021/07/16 10:53:12;;;;;;;10.47;4.90;;;;;;;;;;3591606;40;20655;-61
2021/07/16 10:55:37;;;;;;;15.80;5.43;;;;;;;;;;3589565;40;20028;-60
2021/07/16 10:58:03;;;;;;;8.67;5.43;;;;;;;;;;3589882;40;20031;-61
2021/07/16 11:00:28;;;;;;;20.90;9.03;;;;;;;;;;3591012;40;20044;-60
2021/07/16 11:02:54;;;;;;;10.40;5.13;;;;;;;;;;3588166;40;20084;-61
2021/07/16 11:05:19;;;;;;;10.80;5.60;;;;;;;;;;3590234;39;20780;-61
2021/07/16 11:07:45;;;;;;;9.37;6.33;;;;;;;;;;3587443;40;20043;-61
2021/07/16 11:10:10;;;;;;;10.47;5.23;;;;;;;;;;3587940;40;20424;-61
2021/07/16 11:12:35;;;;;;;11.10;5.87;;;;;;;;;;3590907;40;20020;-60
2021/07/16 11:15:01;;;;;;;14.57;6.25;;;;;;;;;;3591429;39;20509;-61
2021/07/16 11:17:26;;;;;;;10.95;5.28;;;;;;;;;;3590640;40;20040;-61
2021/07/16 11:19:51;;;;;;;8.70;5.60;;;;;;;;;;3590542;39;20399;-61
2021/07/16 11:22:16;;;;;;;18.10;5.93;;;;;;;;;;3590957;40;20760;-60
2021/07/16 11:24:43;;;;;;;10.07;5.90;;;;;;;;;;3590119;40;20016;-61
2021/07/16 11:27:09;;;;;;;10.95;5.85;;;;;;;;;;3590721;39;20032;-61
2021/07/16 11:29:34;;;;;;;11.05;5.90;;;;;;;;;;3590078;39;20309;-61
2021/07/16 11:32:00;;;;;;;9.38;5.07;;;;;;;;;;3588975;40;20401;-61
2021/07/16 11:34:25;;;;;;;10.03;5.60;;;;;;;;;;3590440;40;20028;-61
2021/07/16 11:36:50;;;;;;;10.43;5.47;;;;;;;;;;3591267;40;20055;-61
2021/07/16 11:39:15;;;;;;;8.77;5.50;;;;;;;;;;3591703;40;20039;-61
2021/07/16 11:41:41;;;;;;;11.63;5.40;;;;;;;;;;3590583;40;20810;-61
2021/07/16 11:44:06;;;;;;;11.87;5.10;;;;;;;;;;3591487;40;21006;-61
2021/07/16 11:46:31;;;;;;;7.30;5.23;;;;;;;;;;3591232;39;20032;-61
2021/07/16 11:48:56;;;;;;;8.73;4.87;;;;;;;;;;3590784;40;20770;-61
2021/07/16 11:51:21;;;;;;;13.40;6.07;;;;;;;;;;3591014;40;20087;-61
2021/07/16 11:53:47;;;;;;;11.13;4.90;;;;;;;;;;3590087;40;20217;-61
2021/07/16 11:56:12;;;;;;;8.57;6.27;;;;;;;;;;3591211;40;20677;-61
2021/07/16 11:58:37;;;;;;;13.37;5.43;;;;;;;;;;3590192;40;20032;-61
2021/07/16 12:01:02;;;;;;;10.00;5.27;;;;;;;;;;3589115;40;21025;-61
2021/07/16 12:03:27;;;;;;;15.03;7.27;;;;;;;;;;3588647;40;20088;-61
2021/07/16 12:05:53;;;;;;;9.70;5.20;;;;;;;;;;3586944;40;20031;-61
2021/07/16 12:08:18;;;;;;;13.10;5.30;;;;;;;;;;3588099;40;20021;-61
2021/07/16 12:10:43;;;;;;;7.87;5.07;;;;;;;;;;3589061;40;20035;-61
2021/07/16 12:13:09;;;;;;;11.87;4.67;;;;;;;;;;3589617;40;20527;-61
2021/07/16 12:15:34;;;;;;;13.20;5.03;;;;;;;;;;3589360;40;20039;-61
2021/07/16 12:18:00;;;;;;;11.50;5.10;;;;;;;;;;3586390;40;20032;-62
2021/07/16 12:20:25;;;;;;;9.02;5.95;;;;;;;;;;3589158;39;20028;-62
2021/07/16 12:22:50;;;;;;;12.93;6.50;;;;;;;;;;3590321;40;20410;-62
2021/07/16 12:25:16;;;;;;;12.23;5.67;;;;;;;;;;3588577;40;20040;-62
2021/07/16 12:27:41;;;;;;;9.48;5.38;;;;;;;;;;3590757;39;20140;-62
2021/07/16 12:30:06;;;;;;;9.40;5.63;;;;;;;;;;3589802;39;20024;-62
2021/07/16 12:32:32;;;;;;;10.90;6.07;;;;;;;;;;3589726;40;20024;-61
2021/07/16 12:34:57;;;;;;;10.97;6.03;;;;;;;;;;3590268;40;20635;-62
2021/07/16 12:37:22;;;;;;;10.37;5.80;;;;;;;;;;3589329;40;20028;-62
2021/07/16 12:39:47;;;;;;;13.23;6.30;;;;;;;;;;3589707;39;20814;-61
2021/07/16 12:42:12;;;;;;;12.73;5.60;;;;;;;;;;3589559;40;20089;-61
2021/07/16 12:44:38;;;;;;;12.53;5.70;;;;;;;;;;3589734;40;20019;-62
2021/07/16 12:47:03;;;;;;;12.47;6.33;;;;;;;;;;3589351;40;20039;-62
2021/07/16 12:49:29;;;;;;;12.43;7.67;;;;;;;;;;3588856;40;20807;-62
2021/07/16 12:51:54;;;;;;;15.93;7.50;;;;;;;;;;3589021;40;20064;-61
2021/07/16 12:54:20;;;;;;;19.23;8.53;;;;;;;;;;3589197;40;20310;-61
2021/07/16 12:56:45;;;;;;;15.25;8.40;;;;;;;;;;3589398;39;20516;-61
2021/07/16 12:59:10;;;;;;;16.70;9.50;;;;;;;;;;3588834;40;20040;-61
2021/07/16 13:01:36;;;;;;;16.17;8.40;;;;;;;;;;3587222;40;20035;-61
2021/07/16 13:04:01;;;;;;;14.50;8.23;;;;;;;;;;3588267;40;20020;-61
2021/07/16 13:06:30;;;;;;;15.10;7.70;;;;;;;;;;3588866;40;20028;-61
2021/07/16 13:08:55;;;;;;;14.35;8.07;;;;;;;;;;3587847;40;20032;-61
2021/07/16 13:11:20;;;;;;;13.80;8.13;;;;;;;;;;3588999;40;20842;-61
2021/07/16 13:13:46;;;;;;;15.07;8.10;;;;;;;;;;3589415;40;20032;-61
2021/07/16 13:16:11;;;;;;;12.27;7.77;;;;;;;;;;3589343;40;20041;-60
2021/07/16 13:18:36;;;;;;;18.13;9.50;;;;;;;;;;3587560;40;20039;-61
2021/07/16 13:21:01;;;;;;;16.00;9.57;;;;;;;;;;3589506;40;20039;-61
2021/07/16 13:23:27;;;;;;;18.77;11.07;;;;;;;;;;3589052;40;20212;-61
2021/07/16 13:25:52;;;;;;;19.17;10.50;;;;;;;;;;3589433;40;20496;-67
2021/07/16 13:28:17;;;;;;;20.13;11.10;;;;;;;;;;3589016;40;20024;-66
2021/07/16 13:30:42;;;;;;;16.63;11.17;;;;;;;;;;3587992;40;20074;-67
2021/07/16 13:33:08;;;;;;;19.07;11.47;;;;;;;;;;3588909;40;20016;-67
2021/07/16 13:35:33;;;;;;;26.25;12.30;;;;;;;;;;3588651;39;20060;-67
2021/07/16 13:37:58;;;;;;;22.97;13.83;;;;;;;;;;3588151;39;20044;-67
2021/07/16 13:40:23;;;;;;;35.00;14.83;;;;;;;;;;3588134;40;20036;-67
2021/07/16 13:42:49;;;;;;;23.33;13.83;;;;;;;;;;3588407;40;20043;-66
2021/07/16 13:45:14;;;;;;;24.97;13.50;;;;;;;;;;3588748;40;20275;-67
2021/07/16 13:47:39;;;;;;;28.63;14.05;;;;;;;;;;3588345;39;20039;-67
2021/07/16 13:50:06;;;;;;;29.03;14.77;;;;;;;;;;3588262;40;20036;-67
2021/07/16 13:52:31;;;;;;;33.42;14.80;;;;;;;;;;3588077;40;20044;-67
2021/07/16 13:54:56;;;;;;;20.87;12.80;;;;;;;;;;3588169;39;20050;-67
2021/07/16 13:57:21;;;;;;;20.17;12.60;;;;;;;;;;3589157;40;20024;-67
2021/07/16 13:59:47;;;;;;;25.75;12.65;;;;;;;;;;3586525;40;20025;-67
2021/07/16 14:02:12;;;;;;;29.97;12.27;;;;;;;;;;3588715;40;20040;-67
2021/07/16 14:04:37;;;;;;;22.75;10.80;;;;;;;;;;3588672;40;20036;-67
2021/07/16 14:07:02;;;;;;;15.60;10.40;;;;;;;;;;3588483;39;20403;-67
2021/07/16 14:09:28;;;;;;;19.93;10.40;;;;;;;;;;3587467;39;20028;-67
2021/07/16 14:11:56;;;;;;;18.13;10.03;;;;;;;;;;3588749;39;20774;-67
2021/07/16 14:14:22;;;;;;;22.35;9.77;;;;;;;;;;3589785;39;20017;-67
2021/07/16 14:16:47;;;;;;;24.27;8.93;;;;;;;;;;3590010;40;20040;-67
2021/07/16 14:19:12;;;;;;;16.93;8.43;;;;;;;;;;3589793;40;20093;-67
2021/07/16 14:21:37;;;;;;;11.43;7.50;;;;;;;;;;3589492;39;20031;-67
2021/07/16 14:24:03;;;;;;;15.50;7.87;;;;;;;;;;3588606;40;20330;-67